Terminal Aerodrome Forecast
Issued by NWS

Home | Current Version | Previous Version | Text Only | Print | Product List | Glossary On
Versions: 1 2 3 4 5 6 7 8 9 10 11 12 13
000
FTUS46 KLOX 251100
TAFSBA
TAF
KSBA 251131Z 2512/2612 VRB03KT P6SM FEW007 BKN120
     FM251700 17007KT P6SM FEW010 BKN100
     FM252100 24008KT P6SM BKN150
     FM260300 33007KT P6SM SCT150
     FM261000 VRB03KT P6SM SCT150=

USA.gov is the U.S. government's official web portal to all federal, state and local government web resources and services.